sensor_id;sensor_type;location;lat;lon;timestamp;P1;durP1;ratioP1;P2;durP2;ratioP2
20344;SDS011;10330;48.816;9.278;2023-11-21T00:00:39;4.25;;;2.38;;
20344;SDS011;10330;48.816;9.278;2023-11-21T00:03:08;6.97;;;1.73;;
20344;SDS011;10330;48.816;9.278;2023-11-21T00:05:40;6.15;;;2.38;;
20344;SDS011;10330;48.816;9.278;2023-11-21T00:08:10;3.50;;;1.73;;
20344;SDS011;10330;48.816;9.278;2023-11-21T00:10:37;7.50;;;1.63;;
20344;SDS011;10330;48.816;9.278;2023-11-21T00:13:06;5.85;;;2.10;;
20344;SDS011;10330;48.816;9.278;2023-11-21T00:15:36;5.75;;;2.40;;
20344;SDS011;10330;48.816;9.278;2023-11-21T00:18:06;3.38;;;1.70;;
20344;SDS011;10330;48.816;9.278;2023-11-21T00:20:32;4.95;;;1.73;;
20344;SDS011;10330;48.816;9.278;2023-11-21T00:23:03;4.25;;;2.13;;
20344;SDS011;10330;48.816;9.278;2023-11-21T00:25:29;6.22;;;1.85;;
20344;SDS011;10330;48.816;9.278;2023-11-21T00:27:57;6.78;;;2.05;;
20344;SDS011;10330;48.816;9.278;2023-11-21T00:30:27;5.32;;;1.85;;
20344;SDS011;10330;48.816;9.278;2023-11-21T00:32:54;3.63;;;1.92;;
20344;SDS011;10330;48.816;9.278;2023-11-21T00:35:23;5.20;;;2.42;;
20344;SDS011;10330;48.816;9.278;2023-11-21T00:37:49;13.48;;;2.40;;
20344;SDS011;10330;48.816;9.278;2023-11-21T00:40:16;5.60;;;2.03;;
20344;SDS011;10330;48.816;9.278;2023-11-21T00:42:46;7.63;;;1.73;;
20344;SDS011;10330;48.816;9.278;2023-11-21T00:45:16;6.20;;;2.22;;
20344;SDS011;10330;48.816;9.278;2023-11-21T00:47:43;6.07;;;1.90;;
20344;SDS011;10330;48.816;9.278;2023-11-21T00:50:18;5.95;;;1.90;;
20344;SDS011;10330;48.816;9.278;2023-11-21T00:52:45;2.25;;;2.05;;
20344;SDS011;10330;48.816;9.278;2023-11-21T00:55:17;3.33;;;2.08;;
20344;SDS011;10330;48.816;9.278;2023-11-21T00:57:48;3.42;;;1.98;;
20344;SDS011;10330;48.816;9.278;2023-11-21T01:00:20;8.90;;;2.30;;
20344;SDS011;10330;48.816;9.278;2023-11-21T01:02:47;7.60;;;2.30;;
20344;SDS011;10330;48.816;9.278;2023-11-21T01:05:22;5.30;;;1.85;;
20344;SDS011;10330;48.816;9.278;2023-11-21T01:08:06;8.10;;;2.50;;
20344;SDS011;10330;48.816;9.278;2023-11-21T01:10:39;3.83;;;2.13;;
20344;SDS011;10330;48.816;9.278;2023-11-21T01:13:09;8.88;;;2.20;;
20344;SDS011;10330;48.816;9.278;2023-11-21T01:15:42;7.40;;;1.75;;
20344;SDS011;10330;48.816;9.278;2023-11-21T01:18:13;10.18;;;2.30;;
20344;SDS011;10330;48.816;9.278;2023-11-21T01:20:45;5.35;;;1.77;;
20344;SDS011;10330;48.816;9.278;2023-11-21T01:23:18;9.52;;;1.92;;
20344;SDS011;10330;48.816;9.278;2023-11-21T01:25:45;1.48;;;1.38;;
20344;SDS011;10330;48.816;9.278;2023-11-21T01:28:21;8.20;;;1.70;;
20344;SDS011;10330;48.816;9.278;2023-11-21T01:30:50;5.18;;;2.00;;
20344;SDS011;10330;48.816;9.278;2023-11-21T01:33:20;2.67;;;1.63;;
20344;SDS011;10330;48.816;9.278;2023-11-21T01:35:54;5.57;;;2.00;;
20344;SDS011;10330;48.816;9.278;2023-11-21T01:38:21;5.45;;;2.00;;
20344;SDS011;10330;48.816;9.278;2023-11-21T01:40:54;5.57;;;1.65;;
20344;SDS011;10330;48.816;9.278;2023-11-21T01:43:29;11.70;;;1.95;;
20344;SDS011;10330;48.816;9.278;2023-11-21T01:46:00;5.88;;;1.50;;
20344;SDS011;10330;48.816;9.278;2023-11-21T01:48:26;9.75;;;1.50;;
20344;SDS011;10330;48.816;9.278;2023-11-21T01:51:10;6.45;;;1.40;;
20344;SDS011;10330;48.816;9.278;2023-11-21T01:53:47;4.18;;;1.85;;
20344;SDS011;10330;48.816;9.278;2023-11-21T01:56:14;2.70;;;1.42;;
20344;SDS011;10330;48.816;9.278;2023-11-21T02:01:46;2.13;;;1.23;;
20344;SDS011;10330;48.816;9.278;2023-11-21T02:04:16;2.45;;;1.15;;
20344;SDS011;10330;48.816;9.278;2023-11-21T02:07:04;8.65;;;1.60;;
20344;SDS011;10330;48.816;9.278;2023-11-21T02:09:41;6.88;;;1.10;;
20344;SDS011;10330;48.816;9.278;2023-11-21T02:12:18;5.75;;;1.77;;
20344;SDS011;10330;48.816;9.278;2023-11-21T02:14:47;1.67;;;1.38;;
20344;SDS011;10330;48.816;9.278;2023-11-21T02:17:14;8.00;;;2.13;;
20344;SDS011;10330;48.816;9.278;2023-11-21T02:19:41;6.82;;;1.08;;
20344;SDS011;10330;48.816;9.278;2023-11-21T02:22:10;5.90;;;1.17;;
20344;SDS011;10330;48.816;9.278;2023-11-21T02:24:37;10.02;;;1.40;;
20344;SDS011;10330;48.816;9.278;2023-11-21T02:27:08;2.20;;;1.10;;
20344;SDS011;10330;48.816;9.278;2023-11-21T02:29:34;2.47;;;1.05;;
20344;SDS011;10330;48.816;9.278;2023-11-21T02:32:01;1.73;;;1.17;;
20344;SDS011;10330;48.816;9.278;2023-11-21T02:34:31;1.48;;;1.30;;
20344;SDS011;10330;48.816;9.278;2023-11-21T02:37:00;3.00;;;1.00;;
20344;SDS011;10330;48.816;9.278;2023-11-21T02:39:27;6.47;;;1.58;;
20344;SDS011;10330;48.816;9.278;2023-11-21T02:41:53;1.70;;;0.98;;
20344;SDS011;10330;48.816;9.278;2023-11-21T02:44:20;3.95;;;1.73;;
20344;SDS011;10330;48.816;9.278;2023-11-21T02:46:46;2.78;;;1.33;;
20344;SDS011;10330;48.816;9.278;2023-11-21T02:49:13;4.45;;;1.33;;
20344;SDS011;10330;48.816;9.278;2023-11-21T02:51:40;3.13;;;1.02;;
20344;SDS011;10330;48.816;9.278;2023-11-21T02:54:06;6.45;;;1.25;;
20344;SDS011;10330;48.816;9.278;2023-11-21T02:56:34;3.42;;;1.08;;
20344;SDS011;10330;48.816;9.278;2023-11-21T02:59:05;1.50;;;1.00;;
20344;SDS011;10330;48.816;9.278;2023-11-21T03:01:31;3.83;;;1.85;;
20344;SDS011;10330;48.816;9.278;2023-11-21T03:03:58;3.40;;;1.27;;
20344;SDS011;10330;48.816;9.278;2023-11-21T03:06:24;3.72;;;1.00;;
20344;SDS011;10330;48.816;9.278;2023-11-21T03:08:54;1.08;;;1.08;;
20344;SDS011;10330;48.816;9.278;2023-11-21T03:11:20;3.08;;;1.40;;
20344;SDS011;10330;48.816;9.278;2023-11-21T03:13:53;1.33;;;0.80;;
20344;SDS011;10330;48.816;9.278;2023-11-21T03:16:23;3.65;;;1.15;;
20344;SDS011;10330;48.816;9.278;2023-11-21T03:18:52;0.93;;;0.88;;
20344;SDS011;10330;48.816;9.278;2023-11-21T03:21:21;2.45;;;1.00;;
20344;SDS011;10330;48.816;9.278;2023-11-21T03:23:55;3.42;;;1.20;;
20344;SDS011;10330;48.816;9.278;2023-11-21T03:26:25;1.13;;;0.77;;
20344;SDS011;10330;48.816;9.278;2023-11-21T03:29:02;2.05;;;0.70;;
20344;SDS011;10330;48.816;9.278;2023-11-21T03:31:30;4.68;;;1.05;;
20344;SDS011;10330;48.816;9.278;2023-11-21T03:34:02;3.58;;;1.50;;
20344;SDS011;10330;48.816;9.278;2023-11-21T03:36:29;2.80;;;1.45;;
20344;SDS011;10330;48.816;9.278;2023-11-21T03:38:56;1.20;;;1.10;;
20344;SDS011;10330;48.816;9.278;2023-11-21T03:41:25;2.42;;;1.20;;
20344;SDS011;10330;48.816;9.278;2023-11-21T03:43:51;2.83;;;1.00;;
20344;SDS011;10330;48.816;9.278;2023-11-21T03:46:17;5.60;;;1.15;;
20344;SDS011;10330;48.816;9.278;2023-11-21T03:48:43;1.50;;;0.88;;
20344;SDS011;10330;48.816;9.278;2023-11-21T03:51:10;1.15;;;1.02;;
20344;SDS011;10330;48.816;9.278;2023-11-21T03:53:36;2.28;;;1.13;;
20344;SDS011;10330;48.816;9.278;2023-11-21T03:56:03;0.80;;;0.80;;
20344;SDS011;10330;48.816;9.278;2023-11-21T03:58:30;1.02;;;1.02;;
20344;SDS011;10330;48.816;9.278;2023-11-21T04:00:56;6.80;;;1.27;;
20344;SDS011;10330;48.816;9.278;2023-11-21T04:03:22;1.33;;;0.70;;
20344;SDS011;10330;48.816;9.278;2023-11-21T04:05:48;1.67;;;1.02;;
20344;SDS011;10330;48.816;9.278;2023-11-21T04:08:15;7.63;;;0.88;;
20344;SDS011;10330;48.816;9.278;2023-11-21T04:10:41;1.10;;;0.95;;
20344;SDS011;10330;48.816;9.278;2023-11-21T04:13:07;1.48;;;1.05;;
20344;SDS011;10330;48.816;9.278;2023-11-21T04:15:37;1.88;;;0.80;;
20344;SDS011;10330;48.816;9.278;2023-11-21T04:18:25;1.98;;;0.82;;
20344;SDS011;10330;48.816;9.278;2023-11-21T04:21:02;1.77;;;0.85;;
20344;SDS011;10330;48.816;9.278;2023-11-21T04:23:37;1.75;;;0.70;;
20344;SDS011;10330;48.816;9.278;2023-11-21T04:26:17;0.95;;;0.95;;
20344;SDS011;10330;48.816;9.278;2023-11-21T04:29:35;1.30;;;1.20;;
20344;SDS011;10330;48.816;9.278;2023-11-21T04:32:32;2.70;;;1.00;;
20344;SDS011;10330;48.816;9.278;2023-11-21T04:38:31;1.38;;;1.08;;
20344;SDS011;10330;48.816;9.278;2023-11-21T04:41:15;0.80;;;0.80;;
20344;SDS011;10330;48.816;9.278;2023-11-21T04:43:42;1.48;;;0.95;;
20344;SDS011;10330;48.816;9.278;2023-11-21T04:46:09;4.00;;;1.42;;
20344;SDS011;10330;48.816;9.278;2023-11-21T04:48:35;1.33;;;1.10;;
20344;SDS011;10330;48.816;9.278;2023-11-21T04:51:02;4.35;;;1.88;;
20344;SDS011;10330;48.816;9.278;2023-11-21T04:53:30;2.92;;;1.50;;
20344;SDS011;10330;48.816;9.278;2023-11-21T04:55:58;2.35;;;1.40;;
20344;SDS011;10330;48.816;9.278;2023-11-21T04:58:25;3.80;;;1.98;;
20344;SDS011;10330;48.816;9.278;2023-11-21T05:00:54;1.85;;;1.42;;
20344;SDS011;10330;48.816;9.278;2023-11-21T05:03:20;1.30;;;1.20;;
20344;SDS011;10330;48.816;9.278;2023-11-21T05:05:49;2.05;;;1.10;;
20344;SDS011;10330;48.816;9.278;2023-11-21T05:08:15;1.52;;;1.15;;
20344;SDS011;10330;48.816;9.278;2023-11-21T05:10:43;0.95;;;0.93;;
20344;SDS011;10330;48.816;9.278;2023-11-21T05:13:09;1.20;;;0.80;;
20344;SDS011;10330;48.816;9.278;2023-11-21T05:15:43;4.93;;;1.20;;
20344;SDS011;10330;48.816;9.278;2023-11-21T05:18:09;1.52;;;1.10;;
20344;SDS011;10330;48.816;9.278;2023-11-21T05:20:36;4.38;;;1.08;;
20344;SDS011;10330;48.816;9.278;2023-11-21T05:23:03;2.20;;;1.27;;
20344;SDS011;10330;48.816;9.278;2023-11-21T05:25:30;3.60;;;2.05;;
20344;SDS011;10330;48.816;9.278;2023-11-21T05:27:57;2.55;;;1.40;;
20344;SDS011;10330;48.816;9.278;2023-11-21T05:30:26;4.20;;;1.58;;
20344;SDS011;10330;48.816;9.278;2023-11-21T05:32:53;2.90;;;1.10;;
20344;SDS011;10330;48.816;9.278;2023-11-21T05:35:19;1.10;;;0.95;;
20344;SDS011;10330;48.816;9.278;2023-11-21T05:37:47;4.18;;;1.08;;
20344;SDS011;10330;48.816;9.278;2023-11-21T05:40:13;0.90;;;0.90;;
20344;SDS011;10330;48.816;9.278;2023-11-21T05:42:40;1.48;;;0.93;;
20344;SDS011;10330;48.816;9.278;2023-11-21T05:45:08;2.00;;;0.93;;
20344;SDS011;10330;48.816;9.278;2023-11-21T05:47:45;0.85;;;0.85;;
20344;SDS011;10330;48.816;9.278;2023-11-21T05:50:12;7.05;;;1.17;;
20344;SDS011;10330;48.816;9.278;2023-11-21T05:52:41;2.85;;;0.80;;
20344;SDS011;10330;48.816;9.278;2023-11-21T05:55:08;1.00;;;0.88;;
20344;SDS011;10330;48.816;9.278;2023-11-21T05:57:35;1.30;;;0.90;;
20344;SDS011;10330;48.816;9.278;2023-11-21T06:00:04;3.10;;;1.20;;
20344;SDS011;10330;48.816;9.278;2023-11-21T06:02:40;1.48;;;1.38;;
20344;SDS011;10330;48.816;9.278;2023-11-21T06:05:07;4.85;;;1.33;;
20344;SDS011;10330;48.816;9.278;2023-11-21T06:07:35;3.72;;;1.27;;
20344;SDS011;10330;48.816;9.278;2023-11-21T06:10:05;2.15;;;1.17;;
20344;SDS011;10330;48.816;9.278;2023-11-21T06:12:37;1.95;;;1.30;;
20344;SDS011;10330;48.816;9.278;2023-11-21T06:15:06;0.82;;;0.82;;
20344;SDS011;10330;48.816;9.278;2023-11-21T06:17:37;1.15;;;0.93;;
20344;SDS011;10330;48.816;9.278;2023-11-21T06:20:05;1.10;;;1.10;;
20344;SDS011;10330;48.816;9.278;2023-11-21T06:22:40;4.43;;;1.27;;
20344;SDS011;10330;48.816;9.278;2023-11-21T06:25:08;5.78;;;1.23;;
20344;SDS011;10330;48.816;9.278;2023-11-21T06:27:39;2.35;;;0.73;;
20344;SDS011;10330;48.816;9.278;2023-11-21T06:30:13;5.10;;;1.48;;
20344;SDS011;10330;48.816;9.278;2023-11-21T06:32:41;1.45;;;1.08;;
20344;SDS011;10330;48.816;9.278;2023-11-21T06:35:16;0.93;;;0.93;;
20344;SDS011;10330;48.816;9.278;2023-11-21T06:37:43;2.60;;;0.90;;
20344;SDS011;10330;48.816;9.278;2023-11-21T06:40:17;1.52;;;1.20;;
20344;SDS011;10330;48.816;9.278;2023-11-21T06:42:47;3.80;;;1.42;;
20344;SDS011;10330;48.816;9.278;2023-11-21T06:45:14;1.02;;;1.02;;
20344;SDS011;10330;48.816;9.278;2023-11-21T06:47:41;2.17;;;0.85;;
20344;SDS011;10330;48.816;9.278;2023-11-21T06:50:08;4.78;;;1.00;;
20344;SDS011;10330;48.816;9.278;2023-11-21T06:52:35;2.67;;;1.10;;
20344;SDS011;10330;48.816;9.278;2023-11-21T06:55:01;2.55;;;1.13;;
20344;SDS011;10330;48.816;9.278;2023-11-21T06:57:27;4.13;;;1.45;;
20344;SDS011;10330;48.816;9.278;2023-11-21T06:59:54;5.57;;;1.20;;
20344;SDS011;10330;48.816;9.278;2023-11-21T07:02:25;2.30;;;1.20;;
20344;SDS011;10330;48.816;9.278;2023-11-21T07:04:54;1.10;;;1.10;;
20344;SDS011;10330;48.816;9.278;2023-11-21T07:07:21;2.45;;;1.17;;
20344;SDS011;10330;48.816;9.278;2023-11-21T07:09:47;4.68;;;1.33;;
20344;SDS011;10330;48.816;9.278;2023-11-21T07:12:14;4.97;;;1.67;;
20344;SDS011;10330;48.816;9.278;2023-11-21T07:14:41;3.60;;;1.60;;
20344;SDS011;10330;48.816;9.278;2023-11-21T07:17:11;3.00;;;1.40;;
20344;SDS011;10330;48.816;9.278;2023-11-21T07:19:38;2.55;;;1.38;;
20344;SDS011;10330;48.816;9.278;2023-11-21T07:22:07;1.67;;;1.58;;
20344;SDS011;10330;48.816;9.278;2023-11-21T07:24:34;3.03;;;1.52;;
20344;SDS011;10330;48.816;9.278;2023-11-21T07:27:00;2.17;;;1.15;;
20344;SDS011;10330;48.816;9.278;2023-11-21T07:29:27;1.75;;;1.23;;
20344;SDS011;10330;48.816;9.278;2023-11-21T07:31:55;2.63;;;1.33;;
20344;SDS011;10330;48.816;9.278;2023-11-21T07:37:50;2.00;;;1.00;;
20344;SDS011;10330;48.816;9.278;2023-11-21T07:44:31;2.15;;;1.40;;
20344;SDS011;10330;48.816;9.278;2023-11-21T07:53:43;1.42;;;1.33;;
20344;SDS011;10330;48.816;9.278;2023-11-21T07:57:02;1.25;;;0.98;;
20344;SDS011;10330;48.816;9.278;2023-11-21T07:59:52;3.22;;;1.20;;
20344;SDS011;10330;48.816;9.278;2023-11-21T08:02:23;2.78;;;1.05;;
20344;SDS011;10330;48.816;9.278;2023-11-21T08:05:15;2.10;;;1.40;;
20344;SDS011;10330;48.816;9.278;2023-11-21T08:08:55;4.13;;;1.85;;
20344;SDS011;10330;48.816;9.278;2023-11-21T08:14:59;3.55;;;1.40;;
20344;SDS011;10330;48.816;9.278;2023-11-21T08:17:36;1.02;;;1.02;;
20344;SDS011;10330;48.816;9.278;2023-11-21T08:20:14;3.22;;;1.38;;
20344;SDS011;10330;48.816;9.278;2023-11-21T08:22:57;2.47;;;1.88;;
20344;SDS011;10330;48.816;9.278;2023-11-21T08:25:46;3.25;;;1.38;;
20344;SDS011;10330;48.816;9.278;2023-11-21T08:32:42;4.88;;;1.27;;
20344;SDS011;10330;48.816;9.278;2023-11-21T08:35:36;1.45;;;1.33;;
20344;SDS011;10330;48.816;9.278;2023-11-21T08:45:45;1.27;;;1.17;;
20344;SDS011;10330;48.816;9.278;2023-11-21T08:48:23;1.25;;;1.05;;
20344;SDS011;10330;48.816;9.278;2023-11-21T08:50:58;5.10;;;1.60;;
20344;SDS011;10330;48.816;9.278;2023-11-21T08:53:26;4.57;;;2.90;;
20344;SDS011;10330;48.816;9.278;2023-11-21T08:56:15;3.63;;;1.58;;
20344;SDS011;10330;48.816;9.278;2023-11-21T08:58:44;5.32;;;2.22;;
20344;SDS011;10330;48.816;9.278;2023-11-21T09:01:24;17.60;;;8.93;;
20344;SDS011;10330;48.816;9.278;2023-11-21T09:04:06;4.85;;;1.88;;
20344;SDS011;10330;48.816;9.278;2023-11-21T09:06:42;5.45;;;3.08;;
20344;SDS011;10330;48.816;9.278;2023-11-21T09:09:14;6.90;;;4.05;;
20344;SDS011;10330;48.816;9.278;2023-11-21T09:11:45;5.18;;;1.85;;
20344;SDS011;10330;48.816;9.278;2023-11-21T09:14:42;1.65;;;1.08;;
20344;SDS011;10330;48.816;9.278;2023-11-21T09:17:27;1.05;;;1.05;;
20344;SDS011;10330;48.816;9.278;2023-11-21T09:24:00;1.20;;;1.08;;
20344;SDS011;10330;48.816;9.278;2023-11-21T10:10:07;22.60;;;12.25;;
20344;SDS011;10330;48.816;9.278;2023-11-21T10:20:54;5.03;;;4.00;;
20344;SDS011;10330;48.816;9.278;2023-11-21T10:23:22;4.00;;;3.45;;
20344;SDS011;10330;48.816;9.278;2023-11-21T10:26:00;5.45;;;2.00;;
20344;SDS011;10330;48.816;9.278;2023-11-21T10:32:38;2.65;;;1.95;;
20344;SDS011;10330;48.816;9.278;2023-11-21T10:39:38;4.68;;;1.77;;
20344;SDS011;10330;48.816;9.278;2023-11-21T10:42:18;3.10;;;2.00;;
20344;SDS011;10330;48.816;9.278;2023-11-21T10:48:20;1.40;;;1.38;;
20344;SDS011;10330;48.816;9.278;2023-11-21T11:02:27;2.40;;;1.70;;
20344;SDS011;10330;48.816;9.278;2023-11-21T11:43:57;1.35;;;1.25;;
20344;SDS011;10330;48.816;9.278;2023-11-21T11:46:52;11.23;;;2.40;;
20344;SDS011;10330;48.816;9.278;2023-11-21T11:49:31;45.50;;;17.75;;
20344;SDS011;10330;48.816;9.278;2023-11-21T12:02:58;11.68;;;5.75;;
20344;SDS011;10330;48.816;9.278;2023-11-21T12:06:37;4.38;;;2.63;;
20344;SDS011;10330;48.816;9.278;2023-11-21T12:12:08;23.88;;;10.40;;
20344;SDS011;10330;48.816;9.278;2023-11-21T12:14:35;20.40;;;6.85;;
20344;SDS011;10330;48.816;9.278;2023-11-21T12:17:02;18.70;;;6.35;;
20344;SDS011;10330;48.816;9.278;2023-11-21T12:19:30;31.58;;;16.30;;
20344;SDS011;10330;48.816;9.278;2023-11-21T12:21:56;23.88;;;12.90;;
20344;SDS011;10330;48.816;9.278;2023-11-21T12:24:23;7.47;;;3.92;;
20344;SDS011;10330;48.816;9.278;2023-11-21T12:26:49;13.23;;;6.65;;
20344;SDS011;10330;48.816;9.278;2023-11-21T12:29:15;6.10;;;4.00;;
20344;SDS011;10330;48.816;9.278;2023-11-21T12:31:45;6.53;;;4.82;;
20344;SDS011;10330;48.816;9.278;2023-11-21T12:34:15;15.93;;;7.60;;
20344;SDS011;10330;48.816;9.278;2023-11-21T12:36:43;7.82;;;4.30;;
20344;SDS011;10330;48.816;9.278;2023-11-21T12:39:11;14.65;;;5.70;;
20344;SDS011;10330;48.816;9.278;2023-11-21T12:41:40;13.30;;;5.78;;
20344;SDS011;10330;48.816;9.278;2023-11-21T12:44:09;3.80;;;2.65;;
20344;SDS011;10330;48.816;9.278;2023-11-21T12:46:40;2.55;;;2.30;;
20344;SDS011;10330;48.816;9.278;2023-11-21T12:49:11;7.15;;;4.30;;
20344;SDS011;10330;48.816;9.278;2023-11-21T12:51:43;8.88;;;4.13;;
20344;SDS011;10330;48.816;9.278;2023-11-21T12:54:11;3.95;;;2.30;;
20344;SDS011;10330;48.816;9.278;2023-11-21T12:56:38;6.53;;;3.28;;
20344;SDS011;10330;48.816;9.278;2023-11-21T12:59:05;10.75;;;5.47;;
20344;SDS011;10330;48.816;9.278;2023-11-21T13:01:31;5.93;;;2.95;;
20344;SDS011;10330;48.816;9.278;2023-11-21T13:03:57;7.00;;;3.85;;
20344;SDS011;10330;48.816;9.278;2023-11-21T13:06:28;3.55;;;2.10;;
20344;SDS011;10330;48.816;9.278;2023-11-21T13:12:01;6.95;;;4.53;;
20344;SDS011;10330;48.816;9.278;2023-11-21T13:14:29;9.50;;;5.47;;
20344;SDS011;10330;48.816;9.278;2023-11-21T13:16:57;3.80;;;2.67;;
20344;SDS011;10330;48.816;9.278;2023-11-21T13:19:23;4.10;;;3.03;;
20344;SDS011;10330;48.816;9.278;2023-11-21T13:21:50;4.95;;;3.13;;
20344;SDS011;10330;48.816;9.278;2023-11-21T13:24:16;11.95;;;3.25;;
20344;SDS011;10330;48.816;9.278;2023-11-21T13:26:43;2.45;;;2.30;;
20344;SDS011;10330;48.816;9.278;2023-11-21T13:29:12;2.72;;;2.50;;
20344;SDS011;10330;48.816;9.278;2023-11-21T13:31:38;2.55;;;1.90;;
20344;SDS011;10330;48.816;9.278;2023-11-21T13:34:05;3.03;;;2.30;;
20344;SDS011;10330;48.816;9.278;2023-11-21T13:36:34;2.42;;;2.22;;
20344;SDS011;10330;48.816;9.278;2023-11-21T13:39:01;4.03;;;2.88;;
20344;SDS011;10330;48.816;9.278;2023-11-21T13:41:42;2.40;;;2.17;;
20344;SDS011;10330;48.816;9.278;2023-11-21T13:44:09;2.35;;;1.92;;
20344;SDS011;10330;48.816;9.278;2023-11-21T13:46:45;2.10;;;2.00;;
20344;SDS011;10330;48.816;9.278;2023-11-21T13:49:12;2.90;;;2.15;;
20344;SDS011;10330;48.816;9.278;2023-11-21T13:51:39;5.03;;;3.08;;
20344;SDS011;10330;48.816;9.278;2023-11-21T13:54:11;3.33;;;2.67;;
20344;SDS011;10330;48.816;9.278;2023-11-21T13:56:37;3.13;;;2.40;;
20344;SDS011;10330;48.816;9.278;2023-11-21T13:59:05;3.17;;;1.85;;
20344;SDS011;10330;48.816;9.278;2023-11-21T14:01:42;2.22;;;2.03;;
20344;SDS011;10330;48.816;9.278;2023-11-21T14:04:25;2.00;;;1.90;;
20344;SDS011;10330;48.816;9.278;2023-11-21T14:06:55;2.42;;;1.90;;
20344;SDS011;10330;48.816;9.278;2023-11-21T14:09:22;3.15;;;2.60;;
20344;SDS011;10330;48.816;9.278;2023-11-21T14:11:55;54.53;;;32.42;;
20344;SDS011;10330;48.816;9.278;2023-11-21T14:14:23;38.80;;;23.15;;
20344;SDS011;10330;48.816;9.278;2023-11-21T14:16:53;101.03;;;52.45;;
20344;SDS011;10330;48.816;9.278;2023-11-21T14:19:21;41.33;;;23.08;;
20344;SDS011;10330;48.816;9.278;2023-11-21T14:21:52;5.30;;;4.80;;
20344;SDS011;10330;48.816;9.278;2023-11-21T14:24:19;2.88;;;1.90;;
20344;SDS011;10330;48.816;9.278;2023-11-21T14:26:46;1.67;;;1.65;;
20344;SDS011;10330;48.816;9.278;2023-11-21T14:29:12;1.58;;;1.55;;
20344;SDS011;10330;48.816;9.278;2023-11-21T14:31:45;1.70;;;1.60;;
20344;SDS011;10330;48.816;9.278;2023-11-21T14:34:12;1.33;;;1.33;;
20344;SDS011;10330;48.816;9.278;2023-11-21T14:36:40;1.10;;;1.10;;
20344;SDS011;10330;48.816;9.278;2023-11-21T14:39:08;1.40;;;1.30;;
20344;SDS011;10330;48.816;9.278;2023-11-21T14:41:51;1.00;;;1.00;;
20344;SDS011;10330;48.816;9.278;2023-11-21T14:44:19;1.00;;;1.00;;
20344;SDS011;10330;48.816;9.278;2023-11-21T14:46:47;0.85;;;0.82;;
20344;SDS011;10330;48.816;9.278;2023-11-21T14:49:16;0.90;;;0.90;;
20344;SDS011;10330;48.816;9.278;2023-11-21T14:51:51;1.00;;;1.00;;
20344;SDS011;10330;48.816;9.278;2023-11-21T14:54:29;1.45;;;1.17;;
20344;SDS011;10330;48.816;9.278;2023-11-21T14:57:09;1.38;;;1.27;;
20344;SDS011;10330;48.816;9.278;2023-11-21T14:59:44;1.20;;;1.13;;
20344;SDS011;10330;48.816;9.278;2023-11-21T15:02:23;1.05;;;1.05;;
20344;SDS011;10330;48.816;9.278;2023-11-21T15:05:12;1.55;;;0.90;;
20344;SDS011;10330;48.816;9.278;2023-11-21T15:07:46;3.08;;;1.00;;
20344;SDS011;10330;48.816;9.278;2023-11-21T15:10:15;0.98;;;0.95;;
20344;SDS011;10330;48.816;9.278;2023-11-21T15:12:41;0.82;;;0.82;;
20344;SDS011;10330;48.816;9.278;2023-11-21T15:15:09;1.20;;;1.10;;
20344;SDS011;10330;48.816;9.278;2023-11-21T15:17:42;1.17;;;1.15;;
20344;SDS011;10330;48.816;9.278;2023-11-21T15:20:15;1.17;;;1.00;;
20344;SDS011;10330;48.816;9.278;2023-11-21T15:22:47;1.02;;;1.02;;
20344;SDS011;10330;48.816;9.278;2023-11-21T15:25:14;1.38;;;1.27;;
20344;SDS011;10330;48.816;9.278;2023-11-21T15:27:41;1.48;;;1.35;;
20344;SDS011;10330;48.816;9.278;2023-11-21T15:30:08;1.27;;;1.27;;
20344;SDS011;10330;48.816;9.278;2023-11-21T15:32:34;1.40;;;1.30;;
20344;SDS011;10330;48.816;9.278;2023-11-21T15:35:00;1.90;;;1.80;;
20344;SDS011;10330;48.816;9.278;2023-11-21T15:37:26;1.85;;;1.75;;
20344;SDS011;10330;48.816;9.278;2023-11-21T15:39:54;3.22;;;1.50;;
20344;SDS011;10330;48.816;9.278;2023-11-21T15:42:20;1.88;;;1.77;;
20344;SDS011;10330;48.816;9.278;2023-11-21T15:44:47;3.33;;;1.65;;
20344;SDS011;10330;48.816;9.278;2023-11-21T15:47:13;2.20;;;2.00;;
20344;SDS011;10330;48.816;9.278;2023-11-21T15:49:39;2.67;;;2.20;;
20344;SDS011;10330;48.816;9.278;2023-11-21T15:52:08;2.47;;;2.28;;
20344;SDS011;10330;48.816;9.278;2023-11-21T15:54:35;6.47;;;2.33;;
20344;SDS011;10330;48.816;9.278;2023-11-21T15:57:05;6.45;;;2.50;;
20344;SDS011;10330;48.816;9.278;2023-11-21T15:59:33;3.90;;;2.63;;
20344;SDS011;10330;48.816;9.278;2023-11-21T16:02:00;2.75;;;2.55;;
20344;SDS011;10330;48.816;9.278;2023-11-21T16:04:30;2.63;;;2.42;;
20344;SDS011;10330;48.816;9.278;2023-11-21T16:06:56;42.65;;;22.60;;
20344;SDS011;10330;48.816;9.278;2023-11-21T16:09:24;45.85;;;27.38;;
20344;SDS011;10330;48.816;9.278;2023-11-21T16:11:57;48.22;;;26.42;;
20344;SDS011;10330;48.816;9.278;2023-11-21T16:14:27;50.70;;;25.83;;
20344;SDS011;10330;48.816;9.278;2023-11-21T16:17:03;15.57;;;8.98;;
20344;SDS011;10330;48.816;9.278;2023-11-21T16:19:32;5.50;;;4.15;;
20344;SDS011;10330;48.816;9.278;2023-11-21T16:21:59;2.80;;;2.50;;
20344;SDS011;10330;48.816;9.278;2023-11-21T16:24:26;3.75;;;3.17;;
20344;SDS011;10330;48.816;9.278;2023-11-21T16:26:53;6.70;;;4.45;;
20344;SDS011;10330;48.816;9.278;2023-11-21T16:29:21;27.88;;;15.13;;
20344;SDS011;10330;48.816;9.278;2023-11-21T16:31:48;9.50;;;6.40;;
20344;SDS011;10330;48.816;9.278;2023-11-21T16:34:18;9.60;;;5.80;;
20344;SDS011;10330;48.816;9.278;2023-11-21T16:36:46;10.98;;;6.70;;
20344;SDS011;10330;48.816;9.278;2023-11-21T16:39:13;9.90;;;6.20;;
20344;SDS011;10330;48.816;9.278;2023-11-21T16:41:45;7.63;;;4.68;;
20344;SDS011;10330;48.816;9.278;2023-11-21T16:44:13;9.55;;;4.53;;
20344;SDS011;10330;48.816;9.278;2023-11-21T16:46:44;4.18;;;3.72;;
20344;SDS011;10330;48.816;9.278;2023-11-21T16:49:23;6.60;;;4.10;;
20344;SDS011;10330;48.816;9.278;2023-11-21T16:51:52;6.85;;;4.47;;
20344;SDS011;10330;48.816;9.278;2023-11-21T16:54:19;14.43;;;7.78;;
20344;SDS011;10330;48.816;9.278;2023-11-21T16:56:46;11.88;;;7.45;;
20344;SDS011;10330;48.816;9.278;2023-11-21T16:59:15;8.65;;;4.97;;
20344;SDS011;10330;48.816;9.278;2023-11-21T17:01:41;5.50;;;4.43;;
20344;SDS011;10330;48.816;9.278;2023-11-21T17:04:10;7.55;;;4.47;;
20344;SDS011;10330;48.816;9.278;2023-11-21T17:06:39;70.78;;;35.80;;
20344;SDS011;10330;48.816;9.278;2023-11-21T17:09:06;96.85;;;47.25;;
20344;SDS011;10330;48.816;9.278;2023-11-21T17:11:36;44.15;;;26.25;;
20344;SDS011;10330;48.816;9.278;2023-11-21T17:14:03;50.03;;;29.10;;
20344;SDS011;10330;48.816;9.278;2023-11-21T17:16:32;16.45;;;11.23;;
20344;SDS011;10330;48.816;9.278;2023-11-21T17:19:14;15.55;;;7.35;;
20344;SDS011;10330;48.816;9.278;2023-11-21T17:21:40;10.18;;;7.53;;
20344;SDS011;10330;48.816;9.278;2023-11-21T17:24:07;10.73;;;6.70;;
20344;SDS011;10330;48.816;9.278;2023-11-21T17:26:35;12.20;;;7.47;;
20344;SDS011;10330;48.816;9.278;2023-11-21T17:29:01;12.52;;;6.97;;
20344;SDS011;10330;48.816;9.278;2023-11-21T17:31:28;11.45;;;7.25;;
20344;SDS011;10330;48.816;9.278;2023-11-21T17:33:55;10.93;;;6.65;;
20344;SDS011;10330;48.816;9.278;2023-11-21T17:36:21;14.75;;;7.15;;
20344;SDS011;10330;48.816;9.278;2023-11-21T17:38:48;44.67;;;23.90;;
20344;SDS011;10330;48.816;9.278;2023-11-21T17:41:18;35.25;;;18.10;;
20344;SDS011;10330;48.816;9.278;2023-11-21T17:43:46;20.40;;;12.02;;
20344;SDS011;10330;48.816;9.278;2023-11-21T17:46:17;14.70;;;7.82;;
20344;SDS011;10330;48.816;9.278;2023-11-21T17:48:52;15.13;;;7.45;;
20344;SDS011;10330;48.816;9.278;2023-11-21T17:51:30;9.73;;;6.70;;
20344;SDS011;10330;48.816;9.278;2023-11-21T17:53:56;9.48;;;6.88;;
20344;SDS011;10330;48.816;9.278;2023-11-21T17:56:26;12.18;;;7.50;;
20344;SDS011;10330;48.816;9.278;2023-11-21T17:58:54;8.15;;;6.80;;